sensor_id;sensor_type;location;lat;lon;timestamp;pressure;altitude;pressure_sealevel;temperature;humidity
60646;BME280;46462;32.608;-117.032;2023-05-14T00:01:05;98914.74;;;25.00;44.88
60646;BME280;46462;32.608;-117.032;2023-05-14T00:03:35;98916.84;;;25.04;44.86
60646;BME280;46462;32.608;-117.032;2023-05-14T00:06:06;98920.08;;;25.04;44.89
60646;BME280;46462;32.608;-117.032;2023-05-14T00:08:36;98919.21;;;25.05;44.88
60646;BME280;46462;32.608;-117.032;2023-05-14T00:11:07;98922.46;;;25.06;44.93
60646;BME280;46462;32.608;-117.032;2023-05-14T00:13:37;98919.45;;;25.06;44.92
60646;BME280;46462;32.608;-117.032;2023-05-14T00:16:08;98922.53;;;25.07;44.92
60646;BME280;46462;32.608;-117.032;2023-05-14T00:18:39;98925.07;;;25.08;45.00
60646;BME280;46462;32.608;-117.032;2023-05-14T00:21:10;98926.26;;;25.10;45.03
60646;BME280;46462;32.608;-117.032;2023-05-14T00:23:40;98925.20;;;25.10;45.09
60646;BME280;46462;32.608;-117.032;2023-05-14T00:26:11;98924.76;;;25.06;45.50
60646;BME280;46462;32.608;-117.032;2023-05-14T00:28:42;98924.29;;;25.07;45.38
60646;BME280;46462;32.608;-117.032;2023-05-14T00:31:13;98924.37;;;25.11;45.32
60646;BME280;46462;32.608;-117.032;2023-05-14T00:33:43;98923.36;;;25.10;45.33
60646;BME280;46462;32.608;-117.032;2023-05-14T00:36:14;98927.91;;;25.11;45.39
60646;BME280;46462;32.608;-117.032;2023-05-14T00:38:45;98928.29;;;25.12;45.36
60646;BME280;46462;32.608;-117.032;2023-05-14T00:41:15;98928.53;;;25.11;45.52
60646;BME280;46462;32.608;-117.032;2023-05-14T00:43:45;98928.42;;;25.12;45.45
60646;BME280;46462;32.608;-117.032;2023-05-14T00:46:16;98931.49;;;25.12;45.49
60646;BME280;46462;32.608;-117.032;2023-05-14T00:48:46;98928.19;;;25.11;45.52
60646;BME280;46462;32.608;-117.032;2023-05-14T00:51:18;98929.49;;;25.10;45.55
60646;BME280;46462;32.608;-117.032;2023-05-14T00:53:48;98926.51;;;25.10;45.57
60646;BME280;46462;32.608;-117.032;2023-05-14T00:56:19;98927.64;;;25.09;45.63
60646;BME280;46462;32.608;-117.032;2023-05-14T00:58:49;98927.27;;;25.08;45.64
60646;BME280;46462;32.608;-117.032;2023-05-14T01:01:20;98927.28;;;25.06;45.79
60646;BME280;46462;32.608;-117.032;2023-05-14T01:03:51;98930.53;;;25.08;45.74
60646;BME280;46462;32.608;-117.032;2023-05-14T01:06:28;98932.51;;;25.11;45.62
60646;BME280;46462;32.608;-117.032;2023-05-14T01:09:06;98939.64;;;25.12;45.61
60646;BME280;46462;32.608;-117.032;2023-05-14T01:11:28;98945.95;;;25.12;45.68
60646;BME280;46462;32.608;-117.032;2023-05-14T01:14:00;98949.36;;;25.16;45.59
60646;BME280;46462;32.608;-117.032;2023-05-14T01:16:26;98946.05;;;25.15;45.70
60646;BME280;46462;32.608;-117.032;2023-05-14T01:18:56;98942.62;;;25.15;45.75
60646;BME280;46462;32.608;-117.032;2023-05-14T01:21:35;98941.03;;;25.14;45.78
60646;BME280;46462;32.608;-117.032;2023-05-14T01:23:56;98941.23;;;25.12;45.87
60646;BME280;46462;32.608;-117.032;2023-05-14T01:26:27;98946.48;;;25.10;45.89
60646;BME280;46462;32.608;-117.032;2023-05-14T01:29:03;98951.60;;;25.09;45.84
60646;BME280;46462;32.608;-117.032;2023-05-14T01:31:30;98955.23;;;25.09;45.89
60646;BME280;46462;32.608;-117.032;2023-05-14T01:34:00;98956.98;;;25.10;45.90
60646;BME280;46462;32.608;-117.032;2023-05-14T01:36:31;98955.54;;;25.16;45.79
60646;BME280;46462;32.608;-117.032;2023-05-14T01:39:01;98954.29;;;25.10;45.89
60646;BME280;46462;32.608;-117.032;2023-05-14T01:41:32;98957.13;;;25.10;46.01
60646;BME280;46462;32.608;-117.032;2023-05-14T01:44:02;98957.55;;;25.08;46.14
60646;BME280;46462;32.608;-117.032;2023-05-14T01:46:33;98960.98;;;25.05;46.33
60646;BME280;46462;32.608;-117.032;2023-05-14T01:49:03;98965.60;;;25.07;46.21
60646;BME280;46462;32.608;-117.032;2023-05-14T01:51:34;98968.01;;;25.06;46.25
60646;BME280;46462;32.608;-117.032;2023-05-14T01:54:05;98970.22;;;25.06;46.36
60646;BME280;46462;32.608;-117.032;2023-05-14T01:56:35;98963.37;;;25.09;46.14
60646;BME280;46462;32.608;-117.032;2023-05-14T01:59:06;98959.95;;;25.04;46.36
60646;BME280;46462;32.608;-117.032;2023-05-14T02:01:37;98958.14;;;25.04;46.38
60646;BME280;46462;32.608;-117.032;2023-05-14T02:04:07;98959.28;;;25.05;46.34
60646;BME280;46462;32.608;-117.032;2023-05-14T02:06:38;98964.63;;;25.07;46.34
60646;BME280;46462;32.608;-117.032;2023-05-14T02:09:09;98970.33;;;25.07;46.26
60646;BME280;46462;32.608;-117.032;2023-05-14T02:11:40;98972.38;;;25.07;46.32
60646;BME280;46462;32.608;-117.032;2023-05-14T02:14:10;98972.81;;;25.07;46.34
60646;BME280;46462;32.608;-117.032;2023-05-14T02:16:41;98975.92;;;25.07;46.33
60646;BME280;46462;32.608;-117.032;2023-05-14T02:19:12;98976.97;;;25.07;46.38
60646;BME280;46462;32.608;-117.032;2023-05-14T02:21:43;98979.19;;;25.08;46.29
60646;BME280;46462;32.608;-117.032;2023-05-14T02:24:13;98980.80;;;25.08;46.26
60646;BME280;46462;32.608;-117.032;2023-05-14T02:26:44;98977.63;;;25.07;46.31
60646;BME280;46462;32.608;-117.032;2023-05-14T02:29:15;98974.74;;;25.04;46.46
60646;BME280;46462;32.608;-117.032;2023-05-14T02:31:46;98976.57;;;25.05;46.41
60646;BME280;46462;32.608;-117.032;2023-05-14T02:34:16;98978.62;;;25.05;46.42
60646;BME280;46462;32.608;-117.032;2023-05-14T02:36:47;98981.14;;;25.07;46.32
60646;BME280;46462;32.608;-117.032;2023-05-14T02:39:18;98977.53;;;25.06;46.29
60646;BME280;46462;32.608;-117.032;2023-05-14T02:41:49;98975.35;;;25.06;46.34
60646;BME280;46462;32.608;-117.032;2023-05-14T02:44:19;98975.01;;;25.03;46.43
60646;BME280;46462;32.608;-117.032;2023-05-14T02:46:50;98980.09;;;25.04;46.43
60646;BME280;46462;32.608;-117.032;2023-05-14T02:49:20;98985.04;;;25.01;46.51
60646;BME280;46462;32.608;-117.032;2023-05-14T02:51:51;98987.62;;;24.98;46.55
60646;BME280;46462;32.608;-117.032;2023-05-14T02:54:22;98991.37;;;24.96;46.68
60646;BME280;46462;32.608;-117.032;2023-05-14T02:56:53;98991.48;;;25.05;46.36
60646;BME280;46462;32.608;-117.032;2023-05-14T02:59:24;98992.62;;;25.06;46.32
60646;BME280;46462;32.608;-117.032;2023-05-14T03:01:54;98991.56;;;25.01;46.49
60646;BME280;46462;32.608;-117.032;2023-05-14T03:04:25;98995.42;;;25.00;46.49
60646;BME280;46462;32.608;-117.032;2023-05-14T03:06:56;98995.44;;;25.01;46.57
60646;BME280;46462;32.608;-117.032;2023-05-14T03:09:26;98995.12;;;25.00;46.50
60646;BME280;46462;32.608;-117.032;2023-05-14T03:11:57;98995.06;;;25.01;46.38
60646;BME280;46462;32.608;-117.032;2023-05-14T03:14:28;98995.24;;;25.00;46.54
60646;BME280;46462;32.608;-117.032;2023-05-14T03:16:58;99000.03;;;24.99;46.61
60646;BME280;46462;32.608;-117.032;2023-05-14T03:19:29;99003.07;;;24.99;46.56
60646;BME280;46462;32.608;-117.032;2023-05-14T03:22:00;99004.05;;;24.98;46.58
60646;BME280;46462;32.608;-117.032;2023-05-14T03:24:31;98997.01;;;24.97;46.60
60646;BME280;46462;32.608;-117.032;2023-05-14T03:27:01;98995.77;;;24.96;46.66
60646;BME280;46462;32.608;-117.032;2023-05-14T03:29:32;98997.18;;;24.96;46.64
60646;BME280;46462;32.608;-117.032;2023-05-14T03:32:03;98999.69;;;24.98;46.58
60646;BME280;46462;32.608;-117.032;2023-05-14T03:34:34;99003.97;;;24.99;46.60
60646;BME280;46462;32.608;-117.032;2023-05-14T03:37:05;99006.38;;;25.01;46.52
60646;BME280;46462;32.608;-117.032;2023-05-14T03:39:35;99004.54;;;25.02;46.46
60646;BME280;46462;32.608;-117.032;2023-05-14T03:42:06;99007.50;;;25.02;46.39
60646;BME280;46462;32.608;-117.032;2023-05-14T03:44:37;99009.90;;;24.99;46.58
60646;BME280;46462;32.608;-117.032;2023-05-14T03:47:07;99013.79;;;24.99;46.55
60646;BME280;46462;32.608;-117.032;2023-05-14T03:49:38;99015.18;;;24.99;46.58
60646;BME280;46462;32.608;-117.032;2023-05-14T03:52:09;99015.04;;;24.97;46.54
60646;BME280;46462;32.608;-117.032;2023-05-14T03:54:39;99016.20;;;24.98;46.56
60646;BME280;46462;32.608;-117.032;2023-05-14T03:57:10;99015.57;;;25.00;46.45
60646;BME280;46462;32.608;-117.032;2023-05-14T03:59:40;99016.38;;;24.98;46.61
60646;BME280;46462;32.608;-117.032;2023-05-14T04:02:11;99018.23;;;24.98;46.57
60646;BME280;46462;32.608;-117.032;2023-05-14T04:04:42;99018.85;;;24.99;46.49
60646;BME280;46462;32.608;-117.032;2023-05-14T04:07:13;99020.97;;;24.99;46.52
60646;BME280;46462;32.608;-117.032;2023-05-14T04:09:43;99026.62;;;24.97;46.55
60646;BME280;46462;32.608;-117.032;2023-05-14T04:12:14;99032.71;;;25.04;46.33
60646;BME280;46462;32.608;-117.032;2023-05-14T04:14:45;99033.61;;;25.03;46.43
60646;BME280;46462;32.608;-117.032;2023-05-14T04:17:15;99038.32;;;25.04;46.43
60646;BME280;46462;32.608;-117.032;2023-05-14T04:19:46;99040.01;;;25.01;46.49
60646;BME280;46462;32.608;-117.032;2023-05-14T04:22:17;99045.02;;;25.02;46.45
60646;BME280;46462;32.608;-117.032;2023-05-14T04:24:48;99045.03;;;25.01;46.48
60646;BME280;46462;32.608;-117.032;2023-05-14T04:27:20;99047.04;;;25.02;46.45
60646;BME280;46462;32.608;-117.032;2023-05-14T04:29:49;99048.88;;;25.03;46.39
60646;BME280;46462;32.608;-117.032;2023-05-14T04:32:20;99049.92;;;25.02;46.46
60646;BME280;46462;32.608;-117.032;2023-05-14T04:34:51;99050.56;;;25.01;46.48
60646;BME280;46462;32.608;-117.032;2023-05-14T04:37:22;99049.88;;;25.01;46.48
60646;BME280;46462;32.608;-117.032;2023-05-14T04:39:52;99051.47;;;24.97;46.62
60646;BME280;46462;32.608;-117.032;2023-05-14T04:42:23;99053.74;;;24.98;46.54
60646;BME280;46462;32.608;-117.032;2023-05-14T04:44:53;99057.70;;;24.95;46.68
60646;BME280;46462;32.608;-117.032;2023-05-14T04:47:24;99056.49;;;24.97;46.54
60646;BME280;46462;32.608;-117.032;2023-05-14T04:49:55;99055.30;;;24.95;46.61
60646;BME280;46462;32.608;-117.032;2023-05-14T04:52:26;99055.25;;;24.92;46.64
60646;BME280;46462;32.608;-117.032;2023-05-14T04:54:57;99058.36;;;24.90;46.75
60646;BME280;46462;32.608;-117.032;2023-05-14T04:57:27;99060.06;;;24.90;46.72
60646;BME280;46462;32.608;-117.032;2023-05-14T04:59:58;99060.65;;;24.87;46.84
60646;BME280;46462;32.608;-117.032;2023-05-14T05:02:29;99063.65;;;24.89;46.72
60646;BME280;46462;32.608;-117.032;2023-05-14T05:05:00;99064.00;;;24.91;46.81
60646;BME280;46462;32.608;-117.032;2023-05-14T05:07:30;99066.37;;;24.91;46.74
60646;BME280;46462;32.608;-117.032;2023-05-14T05:10:01;99065.55;;;24.90;46.79
60646;BME280;46462;32.608;-117.032;2023-05-14T05:12:32;99066.04;;;24.91;46.75
60646;BME280;46462;32.608;-117.032;2023-05-14T05:15:09;99063.97;;;24.95;46.62
60646;BME280;46462;32.608;-117.032;2023-05-14T05:17:38;99064.66;;;24.94;46.56
60646;BME280;46462;32.608;-117.032;2023-05-14T05:20:10;99063.32;;;24.92;46.60
60646;BME280;46462;32.608;-117.032;2023-05-14T05:22:40;99062.96;;;24.94;46.62
60646;BME280;46462;32.608;-117.032;2023-05-14T05:25:11;99064.80;;;24.92;46.67
60646;BME280;46462;32.608;-117.032;2023-05-14T05:27:41;99064.58;;;24.96;46.58
60646;BME280;46462;32.608;-117.032;2023-05-14T05:30:12;99068.39;;;24.92;46.64
60646;BME280;46462;32.608;-117.032;2023-05-14T05:32:43;99072.74;;;24.94;46.53
60646;BME280;46462;32.608;-117.032;2023-05-14T05:35:14;99074.74;;;24.91;46.69
60646;BME280;46462;32.608;-117.032;2023-05-14T05:37:44;99072.41;;;24.94;46.59
60646;BME280;46462;32.608;-117.032;2023-05-14T05:40:15;99071.49;;;24.91;46.68
60646;BME280;46462;32.608;-117.032;2023-05-14T05:42:46;99073.78;;;24.89;46.70
60646;BME280;46462;32.608;-117.032;2023-05-14T05:45:16;99077.04;;;24.94;46.55
60646;BME280;46462;32.608;-117.032;2023-05-14T05:47:47;99078.29;;;24.94;46.51
60646;BME280;46462;32.608;-117.032;2023-05-14T05:50:18;99085.36;;;24.90;46.66
60646;BME280;46462;32.608;-117.032;2023-05-14T05:52:49;99085.57;;;24.89;46.69
60646;BME280;46462;32.608;-117.032;2023-05-14T05:55:19;99086.88;;;24.82;46.81
60646;BME280;46462;32.608;-117.032;2023-05-14T05:57:50;99083.89;;;24.91;46.52
60646;BME280;46462;32.608;-117.032;2023-05-14T06:00:21;99076.80;;;24.89;46.61
60646;BME280;46462;32.608;-117.032;2023-05-14T06:02:51;99080.04;;;24.92;46.54
60646;BME280;46462;32.608;-117.032;2023-05-14T06:05:22;99077.61;;;24.90;46.58
60646;BME280;46462;32.608;-117.032;2023-05-14T06:07:53;99080.78;;;24.92;46.47
60646;BME280;46462;32.608;-117.032;2023-05-14T06:10:24;99086.23;;;24.93;46.44
60646;BME280;46462;32.608;-117.032;2023-05-14T06:12:54;99090.40;;;24.93;46.42
60646;BME280;46462;32.608;-117.032;2023-05-14T06:15:25;99090.91;;;24.92;46.43
60646;BME280;46462;32.608;-117.032;2023-05-14T06:17:55;99091.62;;;24.93;46.42
60646;BME280;46462;32.608;-117.032;2023-05-14T06:20:26;99094.03;;;24.89;46.50
60646;BME280;46462;32.608;-117.032;2023-05-14T06:22:58;99098.00;;;24.87;46.50
60646;BME280;46462;32.608;-117.032;2023-05-14T06:25:28;99100.20;;;24.86;46.52
60646;BME280;46462;32.608;-117.032;2023-05-14T06:27:58;99102.82;;;24.89;46.40
60646;BME280;46462;32.608;-117.032;2023-05-14T06:30:29;99102.12;;;24.87;46.45
60646;BME280;46462;32.608;-117.032;2023-05-14T06:33:00;99101.73;;;24.86;46.46
60646;BME280;46462;32.608;-117.032;2023-05-14T06:35:31;99100.78;;;24.86;46.44
60646;BME280;46462;32.608;-117.032;2023-05-14T06:38:02;99104.21;;;24.88;46.36
60646;BME280;46462;32.608;-117.032;2023-05-14T06:40:32;99104.17;;;24.85;46.43
60646;BME280;46462;32.608;-117.032;2023-05-14T06:43:03;99104.51;;;24.90;46.29
60646;BME280;46462;32.608;-117.032;2023-05-14T06:45:34;99100.72;;;24.84;46.38
60646;BME280;46462;32.608;-117.032;2023-05-14T06:48:04;99103.99;;;24.86;46.34
60646;BME280;46462;32.608;-117.032;2023-05-14T06:50:35;99102.04;;;24.82;46.44
60646;BME280;46462;32.608;-117.032;2023-05-14T06:53:06;99095.75;;;24.77;46.52
60646;BME280;46462;32.608;-117.032;2023-05-14T06:55:36;99094.50;;;24.77;46.52
60646;BME280;46462;32.608;-117.032;2023-05-14T06:58:08;99090.58;;;24.80;46.43
60646;BME280;46462;32.608;-117.032;2023-05-14T07:00:38;99092.02;;;24.75;46.53
60646;BME280;46462;32.608;-117.032;2023-05-14T07:03:08;99088.87;;;24.76;46.48
60646;BME280;46462;32.608;-117.032;2023-05-14T07:05:39;99092.04;;;24.76;46.44
60646;BME280;46462;32.608;-117.032;2023-05-14T07:08:10;99094.39;;;24.75;46.44
60646;BME280;46462;32.608;-117.032;2023-05-14T07:10:41;99095.75;;;24.76;46.42
60646;BME280;46462;32.608;-117.032;2023-05-14T07:13:11;99100.42;;;24.75;46.45
60646;BME280;46462;32.608;-117.032;2023-05-14T07:15:42;99101.58;;;24.75;46.40
60646;BME280;46462;32.608;-117.032;2023-05-14T07:18:12;99098.97;;;24.78;46.31
60646;BME280;46462;32.608;-117.032;2023-05-14T07:20:43;99098.09;;;24.79;46.27
60646;BME280;46462;32.608;-117.032;2023-05-14T07:23:14;99098.68;;;24.82;46.10
60646;BME280;46462;32.608;-117.032;2023-05-14T07:25:45;99099.25;;;24.78;46.24
60646;BME280;46462;32.608;-117.032;2023-05-14T07:28:16;99102.85;;;24.79;46.19
60646;BME280;46462;32.608;-117.032;2023-05-14T07:30:46;99103.99;;;24.75;46.22
60646;BME280;46462;32.608;-117.032;2023-05-14T07:33:17;99101.64;;;24.76;46.22
60646;BME280;46462;32.608;-117.032;2023-05-14T07:35:48;99098.57;;;24.74;46.23
60646;BME280;46462;32.608;-117.032;2023-05-14T07:38:19;99100.01;;;24.75;46.23
60646;BME280;46462;32.608;-117.032;2023-05-14T07:40:49;99094.51;;;24.75;46.15
60646;BME280;46462;32.608;-117.032;2023-05-14T07:43:20;99093.27;;;24.78;46.07
60646;BME280;46462;32.608;-117.032;2023-05-14T07:45:51;99092.81;;;24.73;46.18
60646;BME280;46462;32.608;-117.032;2023-05-14T07:48:22;99096.33;;;24.76;46.05
60646;BME280;46462;32.608;-117.032;2023-05-14T07:50:52;99100.07;;;24.78;45.99
60646;BME280;46462;32.608;-117.032;2023-05-14T07:53:23;99097.78;;;24.78;45.92
60646;BME280;46462;32.608;-117.032;2023-05-14T07:55:54;99097.58;;;24.71;46.11
60646;BME280;46462;32.608;-117.032;2023-05-14T07:58:25;99099.02;;;24.68;46.15
60646;BME280;46462;32.608;-117.032;2023-05-14T08:00:56;99095.41;;;24.67;46.16
60646;BME280;46462;32.608;-117.032;2023-05-14T08:03:26;99089.95;;;24.65;46.21
60646;BME280;46462;32.608;-117.032;2023-05-14T08:05:57;99089.19;;;24.64;46.23
60646;BME280;46462;32.608;-117.032;2023-05-14T08:08:28;99092.34;;;24.62;46.22
60646;BME280;46462;32.608;-117.032;2023-05-14T08:10:58;99098.58;;;24.61;46.25
60646;BME280;46462;32.608;-117.032;2023-05-14T08:13:29;99094.23;;;24.63;46.20
60646;BME280;46462;32.608;-117.032;2023-05-14T08:16:00;99090.71;;;24.65;46.10
60646;BME280;46462;32.608;-117.032;2023-05-14T08:18:30;99089.30;;;24.68;45.97
60646;BME280;46462;32.608;-117.032;2023-05-14T08:21:01;99091.00;;;24.67;45.97
60646;BME280;46462;32.608;-117.032;2023-05-14T08:23:32;99088.24;;;24.70;45.83
60646;BME280;46462;32.608;-117.032;2023-05-14T08:26:03;99083.05;;;24.65;45.90
60646;BME280;46462;32.608;-117.032;2023-05-14T08:28:34;99082.97;;;24.71;45.76
60646;BME280;46462;32.608;-117.032;2023-05-14T08:31:04;99079.10;;;24.73;45.68
60646;BME280;46462;32.608;-117.032;2023-05-14T08:33:35;99074.86;;;24.72;45.70
60646;BME280;46462;32.608;-117.032;2023-05-14T08:36:06;99072.79;;;24.73;45.62
60646;BME280;46462;32.608;-117.032;2023-05-14T08:38:36;99069.96;;;24.69;45.73
60646;BME280;46462;32.608;-117.032;2023-05-14T08:41:07;99072.53;;;24.66;45.82
60646;BME280;46462;32.608;-117.032;2023-05-14T08:43:44;99074.53;;;24.69;45.70
60646;BME280;46462;32.608;-117.032;2023-05-14T08:46:10;99078.79;;;24.67;45.73
60646;BME280;46462;32.608;-117.032;2023-05-14T08:48:41;99076.96;;;24.63;45.83
60646;BME280;46462;32.608;-117.032;2023-05-14T08:51:10;99071.90;;;24.62;45.82
60646;BME280;46462;32.608;-117.032;2023-05-14T08:53:41;99067.04;;;24.60;45.82
60646;BME280;46462;32.608;-117.032;2023-05-14T08:56:12;99070.85;;;24.57;45.94
60646;BME280;46462;32.608;-117.032;2023-05-14T08:58:42;99070.50;;;24.61;45.80
60646;BME280;46462;32.608;-117.032;2023-05-14T09:01:13;99067.46;;;24.57;45.90
60646;BME280;46462;32.608;-117.032;2023-05-14T09:03:43;99061.82;;;24.57;45.90
60646;BME280;46462;32.608;-117.032;2023-05-14T09:06:14;99057.45;;;24.56;45.86
60646;BME280;46462;32.608;-117.032;2023-05-14T09:08:45;99055.38;;;24.55;45.83
60646;BME280;46462;32.608;-117.032;2023-05-14T09:11:15;99053.33;;;24.53;45.89
60646;BME280;46462;32.608;-117.032;2023-05-14T09:13:46;99051.94;;;24.57;45.74
60646;BME280;46462;32.608;-117.032;2023-05-14T09:16:18;99051.23;;;24.54;45.80
60646;BME280;46462;32.608;-117.032;2023-05-14T09:18:47;99047.64;;;24.54;45.78
60646;BME280;46462;32.608;-117.032;2023-05-14T09:21:18;99048.50;;;24.55;45.75
60646;BME280;46462;32.608;-117.032;2023-05-14T09:23:53;99052.37;;;24.52;45.82
60646;BME280;46462;32.608;-117.032;2023-05-14T09:26:23;99055.91;;;24.52;45.84
60646;BME280;46462;32.608;-117.032;2023-05-14T09:28:53;99056.22;;;24.51;45.79
60646;BME280;46462;32.608;-117.032;2023-05-14T09:31:21;99058.96;;;24.54;45.75
60646;BME280;46462;32.608;-117.032;2023-05-14T09:33:51;99057.80;;;24.50;45.81
60646;BME280;46462;32.608;-117.032;2023-05-14T09:36:23;99058.95;;;24.54;45.67
60646;BME280;46462;32.608;-117.032;2023-05-14T09:38:53;99056.07;;;24.54;45.63
60646;BME280;46462;32.608;-117.032;2023-05-14T09:41:23;99054.78;;;24.51;45.66
60646;BME280;46462;32.608;-117.032;2023-05-14T09:43:54;99053.83;;;24.53;45.53
60646;BME280;46462;32.608;-117.032;2023-05-14T09:46:24;99057.41;;;24.48;45.67
60646;BME280;46462;32.608;-117.032;2023-05-14T09:48:55;99055.51;;;24.48;45.62
60646;BME280;46462;32.608;-117.032;2023-05-14T09:51:29;99061.08;;;24.49;45.55
60646;BME280;46462;32.608;-117.032;2023-05-14T09:53:56;99061.33;;;24.49;45.52
60646;BME280;46462;32.608;-117.032;2023-05-14T09:56:27;99056.02;;;24.47;45.54
60646;BME280;46462;32.608;-117.032;2023-05-14T09:58:58;99056.93;;;24.46;45.61
60646;BME280;46462;32.608;-117.032;2023-05-14T10:01:30;99057.78;;;24.47;45.58
60646;BME280;46462;32.608;-117.032;2023-05-14T10:04:00;99059.70;;;24.47;45.51
60646;BME280;46462;32.608;-117.032;2023-05-14T10:06:32;99058.83;;;24.51;45.46
60646;BME280;46462;32.608;-117.032;2023-05-14T10:09:04;99061.97;;;24.51;45.38
60646;BME280;46462;32.608;-117.032;2023-05-14T10:11:33;99065.67;;;24.50;45.36
60646;BME280;46462;32.608;-117.032;2023-05-14T10:14:04;99067.13;;;24.50;45.25
60646;BME280;46462;32.608;-117.032;2023-05-14T10:16:36;99065.48;;;24.53;45.18
60646;BME280;46462;32.608;-117.032;2023-05-14T10:19:07;99063.23;;;24.52;45.21
60646;BME280;46462;32.608;-117.032;2023-05-14T10:21:36;99058.62;;;24.51;45.23
60646;BME280;46462;32.608;-117.032;2023-05-14T10:24:07;99054.47;;;24.49;45.26
60646;BME280;46462;32.608;-117.032;2023-05-14T10:26:37;99054.44;;;24.53;45.12
60646;BME280;46462;32.608;-117.032;2023-05-14T10:29:05;99056.12;;;24.49;45.16
60646;BME280;46462;32.608;-117.032;2023-05-14T10:36:38;99057.87;;;24.45;45.18
60646;BME280;46462;32.608;-117.032;2023-05-14T10:39:08;99056.97;;;24.51;44.96
60646;BME280;46462;32.608;-117.032;2023-05-14T10:41:38;99056.41;;;24.49;45.02
60646;BME280;46462;32.608;-117.032;2023-05-14T10:44:10;99055.04;;;24.46;45.05
60646;BME280;46462;32.608;-117.032;2023-05-14T10:46:40;99051.72;;;24.45;45.06
60646;BME280;46462;32.608;-117.032;2023-05-14T10:49:11;99044.09;;;24.46;45.00
60646;BME280;46462;32.608;-117.032;2023-05-14T10:51:42;99037.10;;;24.44;45.04
60646;BME280;46462;32.608;-117.032;2023-05-14T10:54:12;99037.31;;;24.35;45.26
60646;BME280;46462;32.608;-117.032;2023-05-14T10:56:45;99038.52;;;24.36;45.22
60646;BME280;46462;32.608;-117.032;2023-05-14T10:59:16;99041.33;;;24.36;45.13
60646;BME280;46462;32.608;-117.032;2023-05-14T11:01:45;99040.80;;;24.37;45.03
60646;BME280;46462;32.608;-117.032;2023-05-14T11:04:18;99038.52;;;24.37;44.96
60646;BME280;46462;32.608;-117.032;2023-05-14T11:06:46;99036.16;;;24.39;44.90
60646;BME280;46462;32.608;-117.032;2023-05-14T11:09:17;99037.21;;;24.39;44.83
60646;BME280;46462;32.608;-117.032;2023-05-14T11:11:47;99035.49;;;24.38;44.87
60646;BME280;46462;32.608;-117.032;2023-05-14T11:14:19;99032.03;;;24.36;44.88
60646;BME280;46462;32.608;-117.032;2023-05-14T11:16:49;99035.49;;;24.35;44.96
60646;BME280;46462;32.608;-117.032;2023-05-14T11:19:21;99039.17;;;24.32;44.97
60646;BME280;46462;32.608;-117.032;2023-05-14T11:21:50;99043.46;;;24.34;44.94
60646;BME280;46462;32.608;-117.032;2023-05-14T11:24:21;99044.91;;;24.34;44.88
60646;BME280;46462;32.608;-117.032;2023-05-14T11:26:52;99046.70;;;24.36;44.81
60646;BME280;46462;32.608;-117.032;2023-05-14T11:29:22;99046.08;;;24.33;44.86
60646;BME280;46462;32.608;-117.032;2023-05-14T11:31:54;99047.64;;;24.33;44.90
60646;BME280;46462;32.608;-117.032;2023-05-14T11:34:23;99048.89;;;24.33;44.94
60646;BME280;46462;32.608;-117.032;2023-05-14T11:36:54;99049.64;;;24.32;44.94
60646;BME280;46462;32.608;-117.032;2023-05-14T11:39:25;99048.10;;;24.33;44.91
60646;BME280;46462;32.608;-117.032;2023-05-14T11:41:57;99045.28;;;24.35;44.82
60646;BME280;46462;32.608;-117.032;2023-05-14T11:44:26;99041.28;;;24.33;44.84
60646;BME280;46462;32.608;-117.032;2023-05-14T11:46:58;99041.72;;;24.32;44.96
60646;BME280;46462;32.608;-117.032;2023-05-14T11:49:28;99042.81;;;24.28;45.04
60646;BME280;46462;32.608;-117.032;2023-05-14T11:51:59;99044.82;;;24.32;44.88
60646;BME280;46462;32.608;-117.032;2023-05-14T11:54:30;99043.82;;;24.31;44.90
60646;BME280;46462;32.608;-117.032;2023-05-14T11:57:02;99040.42;;;24.37;44.65
60646;BME280;46462;32.608;-117.032;2023-05-14T11:59:31;99042.73;;;24.30;44.81
60646;BME280;46462;32.608;-117.032;2023-05-14T12:02:02;99045.59;;;24.34;44.74
60646;BME280;46462;32.608;-117.032;2023-05-14T12:04:32;99044.22;;;24.37;44.66
60646;BME280;46462;32.608;-117.032;2023-05-14T12:07:08;99045.76;;;24.37;44.67
60646;BME280;46462;32.608;-117.032;2023-05-14T12:09:36;99046.15;;;24.29;44.83
60646;BME280;46462;32.608;-117.032;2023-05-14T12:12:09;99044.64;;;24.34;44.65
60646;BME280;46462;32.608;-117.032;2023-05-14T12:14:37;99041.81;;;24.35;44.66
60646;BME280;46462;32.608;-117.032;2023-05-14T12:17:11;99047.08;;;24.30;44.63
60646;BME280;46462;32.608;-117.032;2023-05-14T12:19:39;99049.45;;;24.32;44.63
60646;BME280;46462;32.608;-117.032;2023-05-14T12:22:07;99049.54;;;24.31;44.78
60646;BME280;46462;32.608;-117.032;2023-05-14T12:24:37;99049.74;;;24.31;44.77
60646;BME280;46462;32.608;-117.032;2023-05-14T12:27:09;99048.08;;;24.34;44.48
60646;BME280;46462;32.608;-117.032;2023-05-14T12:29:38;99046.19;;;24.27;44.71
60646;BME280;46462;32.608;-117.032;2023-05-14T12:32:09;99047.33;;;24.33;44.62
60646;BME280;46462;32.608;-117.032;2023-05-14T12:34:40;99048.70;;;24.30;44.56
60646;BME280;46462;32.608;-117.032;2023-05-14T12:37:10;99049.39;;;24.30;44.58
60646;BME280;46462;32.608;-117.032;2023-05-14T12:39:41;99046.08;;;24.26;44.77
60646;BME280;46462;32.608;-117.032;2023-05-14T12:42:13;99046.92;;;24.30;44.68
60646;BME280;46462;32.608;-117.032;2023-05-14T12:44:42;99050.54;;;24.35;44.41
60646;BME280;46462;32.608;-117.032;2023-05-14T12:47:13;99049.32;;;24.26;44.69
60646;BME280;46462;32.608;-117.032;2023-05-14T12:49:44;99051.19;;;24.31;44.56
60646;BME280;46462;32.608;-117.032;2023-05-14T12:52:15;99051.00;;;24.33;44.34